富山空港の過去48時間の天気

富山空港 (Toyama)

現在時刻: 10/20 03:42 JST (10/19 18:42 UTC) 以下の時間は現地時間です。

過去48時間のMETAR気象情報
時間 風向 風速(m/s) 視程 気温(℃) 湿度(%) 気圧(hPa) 天気現象
19 21:00 不定 1 10km以上 13 94 1019
19 20:00 2 10km以上 14 88 1018
19 19:00 南南西 2 10km以上 13 100 1018
19 18:00 不定 1 10km以上 14 94 1018
19 17:00 北北西 2 10km以上 14 94 1018 弱いしゅう雨
19 16:00 不定 1 10km以上 14 88 1018 弱いしゅう雨
19 15:43 南南西 2 10km以上 14 88 1018 弱い雷雨
19 15:36 2 4000m 14 82 1018 雷雨 もや
19 15:27 南南西 3 2500m 13 94 1018 雷雨 もや
19 15:08 南西 7 1500m 14 88 1018 強い雷雨 もや
19 15:00 3 4000m 17 88 1017 強い雷雨 もや
19 14:49 南東 2 6000m 17 88 1016 雷雨
19 14:00 4 10km以上 19 68 1015 弱い雷雨
19 13:00 5 10km以上 19 73 1015 弱い雷雨
19 12:00 4 10km以上 22 53 1016
19 11:00 西北西 2 10km以上 20 56 1016
19 10:00 北北西 2 10km以上 19 64 1017
19 09:00 北北西 2 10km以上 17 68 1017
19 08:00 不定 1 10km以上 14 82 1017
19 07:00 不定 1 10km以上 13 88 1017
19 06:10 南南東 2 10km以上 11 94 1016 周辺でしゅう雨
18 21:00 不定 1 10km以上 15 88 1017
18 20:00 南南西 3 10km以上 15 88 1016 周辺でしゅう雨
18 19:00 2 10km以上 16 88 1016 弱いしゅう雨
18 18:00 北東 2 10km以上 18 73 1016 弱いしゅう雨
18 17:00 北北東 3 10km以上 18 68 1015 弱いしゅう雨
18 16:00 北北東 5 10km以上 19 64 1015 周辺でしゅう雨
18 15:00 6 10km以上 19 64 1015 周辺でしゅう雨
18 14:00 6 10km以上 19 60 1015 周辺でしゅう雨
18 13:00 6 10km以上 20 60 1014
18 12:00 4 10km以上 20 56 1015
18 11:00 4 10km以上 19 60 1015
18 10:00 4 10km以上 18 60 1015
18 09:00 不定 1 10km以上 16 68 1016
18 08:00 不定 1 10km以上 14 82 1016
18 07:00 静穏 0 10km以上 12 82 1016
18 06:10 不定 1 10km以上 11 94 1015
RJNT 191200Z VRB02KT 9999 SCT090 13/12 Q1019
RJNT 191100Z 19003KT 9999 SCT110 14/12 Q1018
RJNT 191000Z 21003KT 9999 FEW020 13/13 Q1018
RJNT 190900Z VRB02KT 9999 FEW050 BKN120 14/13 Q1018
RJNT 190800Z 34004KT 9999 -SHRA FEW005 SCT060 BKN110 14/13 Q1018
RJNT 190700Z VRB02KT 9999 -SHRA FEW010 FEW020CB BKN050 14/12 Q1018
RJNT 190643Z 21004KT 150V260 9999 -TSRA FEW005 FEW020CB BKN040 14/12 Q1018 RMK 1CU005 1CB020 6CU040 A3006 FBL TS 20KM NW-NE MOV NE
RJNT 190636Z 18004KT 4000 TSRA BR FEW005 SCT020CB BKN030 14/11 Q1018 RMK 1CU005 3CB020 6CU030 A3006 9999S FBL TS 15KM NW-N MOV NE
RJNT 190627Z 20005KT 2500 TSRA BR FEW005 SCT010 SCT020CB BKN030 13/12 Q1018 RMK 1CU005 3CU010 3CB020 6CU030 A3007 MOD TS 10KM N MOV NE
RJNT 190608Z 22013KT 1500 +TSRA BR FEW005 BKN010 BKN020CB 14/12 Q1018 RMK 1CU005 5CU010 6CB020 A3007 MOD TS OHD MOV NE P/RR RI++
RJNT 190600Z 19006KT 120V220 4000 +TSRA BR FEW005 SCT010 BKN020CB 17/15 Q1017
RJNT 190549Z 14003KT 050V190 6000 TSRA FEW005 SCT020 BKN030CB 17/15 Q1016 RMK 1CU005 3CU020 6CB030 A3003 MOD TS OHD MOV NE
RJNT 190500Z 01007KT 9999 -TSRA FEW010 FEW020CB BKN030 19/13 Q1015
RJNT 190400Z 36009KT 9999 -TSRA FEW020 FEW030CB SCT070 BKN100 19/14 Q1015
RJNT 190300Z 35007KT 320V020 9999 FEW025 FEW030TCU SCT160 22/12 Q1016
RJNT 190200Z 30003KT 250V010 9999 FEW025 SCT170 20/11 Q1016
RJNT 190100Z 33003KT 260V030 9999 FEW025 FEW030CB 19/12 Q1017
RJNT 190000Z 34003KT 290V020 9999 FEW025 FEW030CB 17/11 Q1017
RJNT 182300Z VRB02KT 9999 FEW025 FEW030CB 14/11 Q1017
RJNT 182200Z VRB01KT 9999 FEW020 FEW030CB 13/11 Q1017
RJNT 182110Z 16003KT 110V230 9999 VCSH FEW020 FEW030CB SCT080 11/10 Q1016 RMK 1CU020 1CB030 3AC080 A3003 CB FM 50KM NW TO 30KM N MOV NE
RJNT 181200Z VRB02KT 9999 FEW020 SCT060 15/13 Q1017
RJNT 181100Z 21005KT 9999 VCSH FEW020 SCT060 15/13 Q1016
RJNT 181000Z 19004KT 130V220 9999 -SHRA FEW020 SCT035 BKN120 16/14 Q1016
RJNT 180900Z 04004KT 340V080 9999 -SHRA FEW020 SCT030 BKN040 18/13 Q1016
RJNT 180800Z 03006KT 360V070 9999 -SHRA SCT025 BKN040 18/12 Q1015
RJNT 180700Z 03009KT 9999 VCSH BKN025 19/12 Q1015
RJNT 180600Z 36011KT 9999 VCSH BKN030 19/12 Q1015
RJNT 180500Z 36011KT 9999 VCSH BKN030 19/11 Q1015
RJNT 180400Z 36012KT 9999 FEW030 SCT/// 20/12 Q1014
RJNT 180300Z 01008KT 330V080 9999 FEW030 20/11 Q1015
RJNT 180200Z 35008KT 320V030 9999 FEW030 19/11 Q1015
RJNT 180100Z 36007KT 9999 FEW030 18/10 Q1015
RJNT 180000Z VRB02KT 9999 FEW030 16/10 Q1016
RJNT 172300Z VRB01KT 9999 FEW030 14/11 Q1016
RJNT 172200Z 00000KT 9999 FEW030 12/09 Q1016
RJNT 172110Z VRB02KT 9999 FEW030 11/10 Q1015 RMK 1CU030 A3000